Time;durP1;ratioP1;P1;durP2;ratioP2;P2;SDS_P1;SDS_P2;PMS_P1;PMS_P2;Temp;Humidity;BMP_temperature;BMP_pressure;BME280_temperature;BME280_humidity;BME280_pressure;Samples;Min_cycle;Max_cycle;Signal;HPM_P1;HPM_P2
2022/10/22 00:02:18;;;;;;;10.20;7.38;;;;;;;;;;5034006;28;20072;-76
2022/10/22 00:04:44;;;;;;;11.43;7.63;;;;;;;;;;5025267;28;20050;-75
2022/10/22 00:07:10;;;;;;;9.80;7.22;;;;;;;;;;5025712;28;20052;-75
2022/10/22 00:09:36;;;;;;;9.60;7.30;;;;;;;;;;5027217;28;20046;-75
2022/10/22 00:12:06;;;;;;;10.90;6.95;;;;;;;;;;5025545;28;20064;-75
2022/10/22 00:14:32;;;;;;;8.93;7.10;;;;;;;;;;5022882;28;20052;-76
2022/10/22 00:16:59;;;;;;;13.82;7.68;;;;;;;;;;5024402;28;20045;-75
2022/10/22 00:19:26;;;;;;;9.35;7.95;;;;;;;;;;5020839;28;20056;-75
2022/10/22 00:21:52;;;;;;;9.45;7.93;;;;;;;;;;5019497;28;20140;-76
2022/10/22 00:24:18;;;;;;;11.18;7.78;;;;;;;;;;5022851;28;20409;-75
2022/10/22 00:26:44;;;;;;;8.68;7.78;;;;;;;;;;5022070;28;20046;-76
2022/10/22 00:29:10;;;;;;;10.25;7.53;;;;;;;;;;5020094;28;20167;-75
2022/10/22 00:31:36;;;;;;;15.93;7.55;;;;;;;;;;5020187;28;20117;-76
2022/10/22 00:34:02;;;;;;;9.70;7.50;;;;;;;;;;5027575;28;20053;-76
2022/10/22 00:36:28;;;;;;;11.35;7.63;;;;;;;;;;5014347;28;20122;-76
2022/10/22 00:38:54;;;;;;;10.05;7.18;;;;;;;;;;5021034;28;20045;-72
2022/10/22 00:41:20;;;;;;;9.25;7.15;;;;;;;;;;5020836;28;20044;-73
2022/10/22 00:43:53;;;;;;;9.05;7.18;;;;;;;;;;5022619;28;20057;-73
2022/10/22 00:46:19;;;;;;;9.82;7.40;;;;;;;;;;5020369;28;20048;-74
2022/10/22 00:48:45;;;;;;;9.20;7.18;;;;;;;;;;5021414;28;20049;-73
2022/10/22 00:51:11;;;;;;;10.02;6.82;;;;;;;;;;5023883;28;20080;-73
2022/10/22 00:53:40;;;;;;;9.77;7.05;;;;;;;;;;5017197;28;20045;-73
2022/10/22 00:56:06;;;;;;;10.93;6.80;;;;;;;;;;5020632;28;20452;-73
2022/10/22 00:58:34;;;;;;;7.40;6.22;;;;;;;;;;5015862;28;20077;-74
2022/10/22 01:01:00;;;;;;;8.90;6.18;;;;;;;;;;5020609;28;20123;-74
2022/10/22 01:03:26;;;;;;;8.35;6.93;;;;;;;;;;5024797;28;20051;-74
2022/10/22 01:05:57;;;;;;;9.45;6.47;;;;;;;;;;5025465;28;20042;-75
2022/10/22 01:08:41;;;;;;;8.13;7.00;;;;;;;;;;5028905;28;20470;-75
2022/10/22 01:11:14;;;;;;;10.35;6.40;;;;;;;;;;5026121;28;20042;-75
2022/10/22 01:13:43;;;;;;;12.30;6.43;;;;;;;;;;5022178;28;20088;-75
2022/10/22 01:16:11;;;;;;;8.15;6.07;;;;;;;;;;5026944;28;20550;-76
2022/10/22 01:18:42;;;;;;;8.63;6.03;;;;;;;;;;5029253;28;20084;-75
2022/10/22 01:21:23;;;;;;;7.47;5.93;;;;;;;;;;5027926;28;20045;-76
2022/10/22 01:24:08;;;;;;;6.80;5.80;;;;;;;;;;5026302;28;20048;-75
2022/10/22 01:26:34;;;;;;;8.93;6.05;;;;;;;;;;5028075;28;20046;-76
2022/10/22 01:29:15;;;;;;;8.38;6.05;;;;;;;;;;5021522;28;20095;-75
2022/10/22 01:32:06;;;;;;;7.85;6.07;;;;;;;;;;5025411;28;20484;-75
2022/10/22 01:34:33;;;;;;;8.48;5.93;;;;;;;;;;5023729;28;20064;-76
2022/10/22 01:36:59;;;;;;;9.45;5.88;;;;;;;;;;5025776;28;20053;-75
2022/10/22 01:39:26;;;;;;;10.35;5.72;;;;;;;;;;5020071;28;20081;-75
2022/10/22 01:41:54;;;;;;;8.85;5.82;;;;;;;;;;5022994;28;20046;-75
2022/10/22 01:44:27;;;;;;;8.98;5.82;;;;;;;;;;5019213;28;20147;-76
2022/10/22 01:46:58;;;;;;;11.00;6.05;;;;;;;;;;5020233;28;20049;-75
2022/10/22 01:49:32;;;;;;;9.73;5.95;;;;;;;;;;5019229;28;20073;-76
2022/10/22 01:52:05;;;;;;;7.20;5.90;;;;;;;;;;5020528;28;20092;-76
2022/10/22 01:54:38;;;;;;;11.15;5.97;;;;;;;;;;5018423;28;20072;-75
2022/10/22 01:57:16;;;;;;;7.53;6.03;;;;;;;;;;5021051;28;20761;-75
2022/10/22 01:59:42;;;;;;;9.57;5.90;;;;;;;;;;5029218;28;20050;-76
2022/10/22 02:02:28;;;;;;;9.32;6.80;;;;;;;;;;5025013;28;20049;-75
2022/10/22 02:05:04;;;;;;;9.15;6.07;;;;;;;;;;5024312;28;20065;-75
2022/10/22 02:07:34;;;;;;;9.57;6.05;;;;;;;;;;5025630;28;21042;-75
2022/10/22 02:10:00;;;;;;;10.07;6.20;;;;;;;;;;5020855;28;20043;-76
2022/10/22 02:12:27;;;;;;;9.95;6.13;;;;;;;;;;5026618;28;20485;-76
2022/10/22 02:14:55;;;;;;;9.27;5.78;;;;;;;;;;5026003;28;20045;-76
2022/10/22 02:17:21;;;;;;;8.82;5.78;;;;;;;;;;5014170;28;20163;-76
2022/10/22 02:19:52;;;;;;;9.82;6.07;;;;;;;;;;5027159;28;20045;-76
2022/10/22 02:22:18;;;;;;;10.65;5.97;;;;;;;;;;5017935;28;20520;-76
2022/10/22 02:24:44;;;;;;;8.38;5.30;;;;;;;;;;5025196;28;20045;-76
2022/10/22 02:27:13;;;;;;;9.65;5.45;;;;;;;;;;5018311;28;20163;-76
2022/10/22 02:29:42;;;;;;;11.88;5.90;;;;;;;;;;5027437;28;20045;-76
2022/10/22 02:32:09;;;;;;;10.02;5.05;;;;;;;;;;5023538;28;20041;-75
2022/10/22 02:34:35;;;;;;;9.32;5.78;;;;;;;;;;5023996;28;20427;-76
2022/10/22 02:37:02;;;;;;;9.90;5.28;;;;;;;;;;5026022;28;20132;-76
2022/10/22 02:39:30;;;;;;;8.85;5.55;;;;;;;;;;5027036;28;20068;-76
2022/10/22 02:41:56;;;;;;;8.80;5.35;;;;;;;;;;5024711;28;20049;-76
2022/10/22 02:44:23;;;;;;;8.30;5.13;;;;;;;;;;5022338;28;20045;-76
2022/10/22 02:46:51;;;;;;;8.32;5.20;;;;;;;;;;5021807;28;20132;-76
2022/10/22 02:49:17;;;;;;;10.18;5.32;;;;;;;;;;5020625;28;20041;-76
2022/10/22 02:51:43;;;;;;;6.82;5.07;;;;;;;;;;5026119;28;20100;-76
2022/10/22 02:54:09;;;;;;;10.38;5.20;;;;;;;;;;5020510;28;20524;-76
2022/10/22 02:56:35;;;;;;;12.32;5.15;;;;;;;;;;5025045;28;20092;-76
2022/10/22 02:59:01;;;;;;;9.60;4.97;;;;;;;;;;5020509;28;20136;-75
2022/10/22 03:01:27;;;;;;;9.57;5.20;;;;;;;;;;5017754;28;20191;-76
2022/10/22 03:03:53;;;;;;;12.02;5.40;;;;;;;;;;5024433;28;20077;-76
2022/10/22 03:06:19;;;;;;;8.40;4.88;;;;;;;;;;5024577;28;20500;-76
2022/10/22 03:08:46;;;;;;;9.23;5.03;;;;;;;;;;5022889;28;20091;-75
2022/10/22 03:11:15;;;;;;;8.48;4.75;;;;;;;;;;5026576;28;20112;-75
2022/10/22 03:13:41;;;;;;;6.60;4.90;;;;;;;;;;5026113;28;20176;-76
2022/10/22 03:16:07;;;;;;;7.57;4.80;;;;;;;;;;5019616;28;20060;-76
2022/10/22 03:18:33;;;;;;;11.38;5.30;;;;;;;;;;5024707;28;20040;-75
2022/10/22 03:21:22;;;;;;;10.55;4.95;;;;;;;;;;5024613;28;20037;-76
2022/10/22 03:23:48;;;;;;;6.80;4.78;;;;;;;;;;4984834;28;20045;-76
2022/10/22 03:26:14;;;;;;;10.23;5.00;;;;;;;;;;5025010;28;20119;-75
2022/10/22 03:28:41;;;;;;;9.35;4.97;;;;;;;;;;5019740;28;20381;-76
2022/10/22 03:31:07;;;;;;;12.23;5.53;;;;;;;;;;5024011;28;20069;-76
2022/10/22 03:33:33;;;;;;;10.73;4.90;;;;;;;;;;5025721;28;20049;-76
2022/10/22 03:36:00;;;;;;;10.15;5.57;;;;;;;;;;5027496;28;20045;-76
2022/10/22 03:38:26;;;;;;;11.30;4.78;;;;;;;;;;5022647;28;20049;-75
2022/10/22 03:40:52;;;;;;;7.82;5.20;;;;;;;;;;5028031;28;20144;-76
2022/10/22 03:43:18;;;;;;;7.82;5.05;;;;;;;;;;5022761;28;20046;-76
2022/10/22 03:45:44;;;;;;;7.22;4.57;;;;;;;;;;5027375;28;20132;-76
2022/10/22 03:48:10;;;;;;;6.45;4.68;;;;;;;;;;5028614;28;20073;-75
2022/10/22 03:50:36;;;;;;;9.70;5.30;;;;;;;;;;5027952;28;20065;-76
2022/10/22 03:53:03;;;;;;;10.98;5.30;;;;;;;;;;5024894;28;20440;-75
2022/10/22 03:55:29;;;;;;;11.20;5.13;;;;;;;;;;5029939;28;20404;-75
2022/10/22 03:57:55;;;;;;;7.95;5.15;;;;;;;;;;5021506;28;20103;-75
2022/10/22 04:00:21;;;;;;;10.55;4.80;;;;;;;;;;5024586;28;20477;-75
2022/10/22 04:02:48;;;;;;;13.48;4.78;;;;;;;;;;5011481;28;20041;-75
2022/10/22 04:05:14;;;;;;;10.25;4.85;;;;;;;;;;5024196;28;20068;-75
2022/10/22 04:07:40;;;;;;;8.57;4.85;;;;;;;;;;5027502;28;20473;-75
2022/10/22 04:10:06;;;;;;;10.85;4.55;;;;;;;;;;5026694;28;20049;-75
2022/10/22 04:12:32;;;;;;;7.35;4.50;;;;;;;;;;5022691;28;20108;-75
2022/10/22 04:14:58;;;;;;;6.68;4.28;;;;;;;;;;5024139;28;20076;-75
2022/10/22 04:17:24;;;;;;;10.10;4.50;;;;;;;;;;5024453;28;20085;-75
2022/10/22 04:19:50;;;;;;;5.50;4.07;;;;;;;;;;5019271;28;20058;-75
2022/10/22 04:22:19;;;;;;;9.90;4.30;;;;;;;;;;5028120;28;20041;-75
2022/10/22 04:24:45;;;;;;;6.45;4.25;;;;;;;;;;5031517;28;20044;-75
2022/10/22 04:27:13;;;;;;;7.47;3.85;;;;;;;;;;5027654;28;20560;-75
2022/10/22 04:29:42;;;;;;;10.00;4.28;;;;;;;;;;5029079;28;20052;-75
2022/10/22 04:32:08;;;;;;;10.38;4.50;;;;;;;;;;5020621;28;20052;-75
2022/10/22 04:34:34;;;;;;;9.52;4.30;;;;;;;;;;5025004;28;20037;-75
2022/10/22 04:37:00;;;;;;;7.78;3.85;;;;;;;;;;5030203;28;20053;-75
2022/10/22 04:39:26;;;;;;;8.73;4.53;;;;;;;;;;5028880;28;20128;-75
2022/10/22 04:41:52;;;;;;;11.50;4.45;;;;;;;;;;5028145;28;20144;-75
2022/10/22 04:44:18;;;;;;;7.68;4.30;;;;;;;;;;5028164;28;20436;-75
2022/10/22 04:46:44;;;;;;;7.55;4.40;;;;;;;;;;5027200;28;20136;-75
2022/10/22 04:49:11;;;;;;;7.15;4.40;;;;;;;;;;5024102;28;20717;-75
2022/10/22 04:51:37;;;;;;;8.63;4.30;;;;;;;;;;5029068;28;20076;-75
2022/10/22 04:54:03;;;;;;;7.40;3.92;;;;;;;;;;5027226;28;20053;-75
2022/10/22 04:56:30;;;;;;;10.63;4.40;;;;;;;;;;5028628;28;20267;-75
2022/10/22 04:59:00;;;;;;;9.27;4.15;;;;;;;;;;5021097;28;20088;-75
2022/10/22 05:01:30;;;;;;;9.82;4.43;;;;;;;;;;5002768;28;20046;-75
2022/10/22 05:03:57;;;;;;;10.13;4.25;;;;;;;;;;5019714;28;20053;-75
2022/10/22 05:06:24;;;;;;;7.60;4.10;;;;;;;;;;5021297;28;20087;-75
2022/10/22 05:08:54;;;;;;;8.25;3.97;;;;;;;;;;5024550;28;20535;-75
2022/10/22 05:11:21;;;;;;;8.02;4.78;;;;;;;;;;5028055;28;20516;-76
2022/10/22 05:13:47;;;;;;;8.32;4.28;;;;;;;;;;5028016;28;20049;-76
2022/10/22 05:16:13;;;;;;;8.35;4.20;;;;;;;;;;5030357;28;20362;-75
2022/10/22 05:18:40;;;;;;;10.90;4.63;;;;;;;;;;5023606;28;20041;-75
2022/10/22 05:21:11;;;;;;;9.18;4.40;;;;;;;;;;5022490;28;20397;-75
2022/10/22 05:23:47;;;;;;;6.97;4.13;;;;;;;;;;5020430;28;20045;-75
2022/10/22 05:26:14;;;;;;;7.93;4.68;;;;;;;;;;5031621;28;20397;-75
2022/10/22 05:28:40;;;;;;;11.25;4.15;;;;;;;;;;5026617;28;20124;-75
2022/10/22 05:31:07;;;;;;;6.60;3.80;;;;;;;;;;5024105;28;20072;-75
2022/10/22 05:33:34;;;;;;;8.45;4.25;;;;;;;;;;5030698;28;20057;-75
2022/10/22 05:36:00;;;;;;;8.77;3.83;;;;;;;;;;5015561;28;20049;-76
2022/10/22 05:38:26;;;;;;;9.13;4.25;;;;;;;;;;5025532;28;20541;-76
2022/10/22 05:41:03;;;;;;;8.35;4.03;;;;;;;;;;5014669;28;20053;-75
2022/10/22 05:43:29;;;;;;;7.53;4.60;;;;;;;;;;5024600;28;20052;-75
2022/10/22 05:45:55;;;;;;;9.15;4.57;;;;;;;;;;5030664;28;20048;-75
2022/10/22 05:48:22;;;;;;;7.57;4.35;;;;;;;;;;5025281;28;20087;-75
2022/10/22 05:50:49;;;;;;;6.30;4.60;;;;;;;;;;5027155;28;20761;-75
2022/10/22 05:53:17;;;;;;;18.33;12.55;;;;;;;;;;5028324;28;20041;-75
2022/10/22 05:55:43;;;;;;;10.70;6.32;;;;;;;;;;5022033;28;20041;-75
2022/10/22 05:58:10;;;;;;;10.45;5.20;;;;;;;;;;5019534;28;20069;-75
2022/10/22 06:00:36;;;;;;;7.88;5.57;;;;;;;;;;5028712;28;20084;-75
2022/10/22 06:03:02;;;;;;;11.05;5.85;;;;;;;;;;5027467;28;20061;-75
2022/10/22 06:05:28;;;;;;;10.20;5.35;;;;;;;;;;5026884;28;20050;-75
2022/10/22 06:07:55;;;;;;;9.43;5.20;;;;;;;;;;5025668;28;20136;-75
2022/10/22 06:10:21;;;;;;;8.63;4.95;;;;;;;;;;5017727;28;20045;-75
2022/10/22 06:12:47;;;;;;;9.13;5.35;;;;;;;;;;5026202;28;20041;-75
2022/10/22 06:15:14;;;;;;;7.75;4.72;;;;;;;;;;5018698;28;20079;-75
2022/10/22 06:17:41;;;;;;;11.75;6.32;;;;;;;;;;5020680;28;20041;-75
2022/10/22 06:20:07;;;;;;;11.70;4.38;;;;;;;;;;5023466;28;24011;-75
2022/10/22 06:22:33;;;;;;;9.20;4.82;;;;;;;;;;5022365;28;20118;-76
2022/10/22 06:24:59;;;;;;;11.13;5.32;;;;;;;;;;5025401;28;20061;-75
2022/10/22 06:27:25;;;;;;;12.10;7.93;;;;;;;;;;5022662;28;20038;-75
2022/10/22 06:29:51;;;;;;;12.20;5.43;;;;;;;;;;5027778;28;20095;-75
2022/10/22 06:32:17;;;;;;;11.32;4.97;;;;;;;;;;5014286;28;20128;-75
2022/10/22 06:34:43;;;;;;;10.43;4.47;;;;;;;;;;5025866;28;20095;-75
2022/10/22 06:37:10;;;;;;;10.40;5.45;;;;;;;;;;5021572;28;20041;-75
2022/10/22 06:39:38;;;;;;;8.32;4.90;;;;;;;;;;5018916;28;20057;-75
2022/10/22 06:42:04;;;;;;;8.70;4.68;;;;;;;;;;5015147;28;20156;-76
2022/10/22 06:44:30;;;;;;;10.30;4.68;;;;;;;;;;5027498;28;20124;-76
2022/10/22 06:46:56;;;;;;;9.55;4.90;;;;;;;;;;5023349;28;20120;-75
2022/10/22 06:49:22;;;;;;;10.38;5.43;;;;;;;;;;5026679;28;20120;-75
2022/10/22 06:51:52;;;;;;;9.93;4.93;;;;;;;;;;5018979;28;20565;-75
2022/10/22 06:54:18;;;;;;;7.82;4.57;;;;;;;;;;5025069;28;20049;-75
2022/10/22 06:56:44;;;;;;;11.40;4.80;;;;;;;;;;5025445;28;20413;-75
2022/10/22 06:59:10;;;;;;;12.65;5.28;;;;;;;;;;5019394;28;20045;-75
2022/10/22 07:01:37;;;;;;;14.77;4.90;;;;;;;;;;5019978;28;20057;-75
2022/10/22 07:04:07;;;;;;;6.25;4.85;;;;;;;;;;5026305;28;20050;-75
2022/10/22 07:06:33;;;;;;;8.00;4.97;;;;;;;;;;5025006;28;20140;-75
2022/10/22 07:08:59;;;;;;;11.95;5.18;;;;;;;;;;5026964;28;20126;-75
2022/10/22 07:11:27;;;;;;;9.30;4.90;;;;;;;;;;5029713;28;20548;-75
2022/10/22 07:13:54;;;;;;;9.57;4.75;;;;;;;;;;5029330;28;20488;-75
2022/10/22 07:16:20;;;;;;;11.57;4.78;;;;;;;;;;5028255;28;20049;-75
2022/10/22 07:18:46;;;;;;;12.98;5.00;;;;;;;;;;5031137;28;20038;-75
2022/10/22 07:21:13;;;;;;;8.00;5.00;;;;;;;;;;5030351;28;21285;-75
2022/10/22 07:23:39;;;;;;;11.98;5.18;;;;;;;;;;5027972;28;20048;-75
2022/10/22 07:26:09;;;;;;;11.10;4.72;;;;;;;;;;5030590;28;20053;-75
2022/10/22 07:28:38;;;;;;;13.60;6.15;;;;;;;;;;5023664;28;20115;-75
2022/10/22 07:31:05;;;;;;;9.68;5.22;;;;;;;;;;5023485;28;21233;-75
2022/10/22 07:33:31;;;;;;;8.73;4.60;;;;;;;;;;5019974;28;20046;-75
2022/10/22 07:35:58;;;;;;;12.45;4.78;;;;;;;;;;5019750;28;20501;-75
2022/10/22 07:38:24;;;;;;;11.52;5.63;;;;;;;;;;5023837;28;20037;-75
2022/10/22 07:40:50;;;;;;;13.02;5.72;;;;;;;;;;5020669;28;20371;-75
2022/10/22 07:43:16;;;;;;;8.02;5.50;;;;;;;;;;5027491;28;20060;-75
2022/10/22 07:45:42;;;;;;;10.88;5.25;;;;;;;;;;5030490;28;20049;-76
2022/10/22 07:48:08;;;;;;;12.77;5.68;;;;;;;;;;5024662;28;20124;-75
2022/10/22 07:50:34;;;;;;;10.05;5.45;;;;;;;;;;5031562;28;20037;-75
2022/10/22 07:53:00;;;;;;;14.75;6.25;;;;;;;;;;5022065;28;20069;-76
2022/10/22 07:55:26;;;;;;;11.05;6.32;;;;;;;;;;5027183;28;20166;-75
2022/10/22 07:57:52;;;;;;;10.73;4.93;;;;;;;;;;5031794;28;20631;-75
2022/10/22 08:00:18;;;;;;;10.57;4.70;;;;;;;;;;5025656;28;20045;-75
2022/10/22 08:02:46;;;;;;;11.88;5.15;;;;;;;;;;5030533;28;20049;-76
2022/10/22 08:05:12;;;;;;;9.93;5.05;;;;;;;;;;5021435;28;20041;-76
2022/10/22 08:07:39;;;;;;;11.02;4.80;;;;;;;;;;5029220;28;20049;-76
2022/10/22 08:10:08;;;;;;;14.02;4.82;;;;;;;;;;5026801;28;20060;-75
2022/10/22 08:12:35;;;;;;;8.30;5.25;;;;;;;;;;5024707;28;20092;-76
2022/10/22 08:15:01;;;;;;;10.77;4.97;;;;;;;;;;5028512;28;20049;-77
2022/10/22 08:17:30;;;;;;;9.13;4.78;;;;;;;;;;5024130;28;20703;-75
2022/10/22 08:19:56;;;;;;;9.93;4.90;;;;;;;;;;5026952;28;20128;-76
2022/10/22 08:22:22;;;;;;;12.10;4.68;;;;;;;;;;5029516;28;20428;-75
2022/10/22 08:24:49;;;;;;;10.10;4.68;;;;;;;;;;5025285;28;20405;-75
2022/10/22 08:27:15;;;;;;;10.88;4.22;;;;;;;;;;5025472;28;20890;-75
2022/10/22 08:29:41;;;;;;;9.77;4.55;;;;;;;;;;5025917;28;20053;-76
2022/10/22 08:32:07;;;;;;;10.73;4.40;;;;;;;;;;5026936;28;20102;-76
2022/10/22 08:34:33;;;;;;;12.25;4.68;;;;;;;;;;5025276;28;20041;-76
2022/10/22 08:36:59;;;;;;;10.40;4.43;;;;;;;;;;5020560;28;20071;-76
2022/10/22 08:39:25;;;;;;;8.38;4.13;;;;;;;;;;5028359;28;20488;-76
2022/10/22 08:42:09;;;;;;;9.45;4.47;;;;;;;;;;5027298;28;20041;-76
2022/10/22 08:44:44;;;;;;;12.75;4.50;;;;;;;;;;5020072;28;20068;-76
2022/10/22 08:47:29;;;;;;;8.75;4.00;;;;;;;;;;5018765;28;20071;-76
2022/10/22 08:49:56;;;;;;;12.20;4.30;;;;;;;;;;5019974;28;20057;-76
2022/10/22 08:52:22;;;;;;;15.27;4.35;;;;;;;;;;5023965;28;20132;-75
2022/10/22 08:54:58;;;;;;;9.13;4.40;;;;;;;;;;5025613;28;20037;-76
2022/10/22 08:57:35;;;;;;;8.07;4.75;;;;;;;;;;5019593;28;20097;-75
2022/10/22 09:00:17;;;;;;;10.20;4.63;;;;;;;;;;5024374;28;20055;-77
2022/10/22 09:02:52;;;;;;;13.30;5.10;;;;;;;;;;5023032;28;20049;-76
2022/10/22 09:05:33;;;;;;;9.57;4.65;;;;;;;;;;5018164;28;20037;-75
2022/10/22 09:07:59;;;;;;;11.43;4.60;;;;;;;;;;5016522;28;20200;-75
2022/10/22 09:10:26;;;;;;;15.23;6.68;;;;;;;;;;5026275;28;20037;-76
2022/10/22 09:12:52;;;;;;;13.38;5.30;;;;;;;;;;5021991;28;20111;-77
2022/10/22 09:15:19;;;;;;;9.63;5.30;;;;;;;;;;5027137;28;20071;-77
2022/10/22 09:17:54;;;;;;;13.30;4.85;;;;;;;;;;5025445;28;20084;-75
2022/10/22 09:20:38;;;;;;;11.35;4.75;;;;;;;;;;5025216;28;20045;-74
2022/10/22 09:23:18;;;;;;;10.32;6.10;;;;;;;;;;5021514;28;20049;-74
2022/10/22 09:25:45;;;;;;;12.93;6.10;;;;;;;;;;5025129;28;20046;-75
2022/10/22 09:28:11;;;;;;;11.70;5.78;;;;;;;;;;5026648;28;20116;-76
2022/10/22 09:30:38;;;;;;;10.15;5.10;;;;;;;;;;5027174;28;20072;-76
2022/10/22 09:33:18;;;;;;;10.30;5.25;;;;;;;;;;5025814;28;20049;-76
2022/10/22 09:35:56;;;;;;;13.80;5.65;;;;;;;;;;5027262;28;20491;-76
2022/10/22 09:38:25;;;;;;;10.23;5.60;;;;;;;;;;5025081;28;20103;-76
2022/10/22 09:40:52;;;;;;;13.95;6.07;;;;;;;;;;5024237;28;20045;-77
2022/10/22 09:43:18;;;;;;;12.27;5.70;;;;;;;;;;5027565;28;20099;-77
2022/10/22 09:45:45;;;;;;;10.23;5.60;;;;;;;;;;5021838;28;20095;-74
2022/10/22 09:48:14;;;;;;;9.15;5.15;;;;;;;;;;5026075;28;20536;-77
2022/10/22 09:50:44;;;;;;;10.15;4.70;;;;;;;;;;5027613;28;20563;-77
2022/10/22 09:53:17;;;;;;;11.52;5.50;;;;;;;;;;5028610;28;20095;-75
2022/10/22 09:55:44;;;;;;;15.40;5.47;;;;;;;;;;5023430;28;20083;-76
2022/10/22 09:58:11;;;;;;;9.57;5.30;;;;;;;;;;5029887;28;20073;-77
2022/10/22 10:00:38;;;;;;;9.23;4.80;;;;;;;;;;5023831;28;20092;-78
2022/10/22 10:03:04;;;;;;;11.38;5.15;;;;;;;;;;5023965;28;20049;-78
2022/10/22 10:05:32;;;;;;;8.63;4.80;;;;;;;;;;5025839;28;20041;-77
2022/10/22 10:08:05;;;;;;;9.48;4.93;;;;;;;;;;5029705;28;20041;-78
2022/10/22 10:10:41;;;;;;;11.10;4.93;;;;;;;;;;5025257;28;20490;-77
2022/10/22 10:13:29;;;;;;;10.07;4.80;;;;;;;;;;5025233;28;20055;-77
2022/10/22 10:16:04;;;;;;;13.90;5.75;;;;;;;;;;5023831;28;20606;-77
2022/10/22 10:18:49;;;;;;;7.88;4.60;;;;;;;;;;5027582;28;20042;-77
2022/10/22 10:21:23;;;;;;;9.27;4.70;;;;;;;;;;5025058;28;20452;-79
2022/10/22 10:23:49;;;;;;;11.43;4.93;;;;;;;;;;5020445;28;20041;-78
2022/10/22 10:26:19;;;;;;;8.23;4.55;;;;;;;;;;5023756;28;20087;-79
2022/10/22 10:28:45;;;;;;;8.77;4.50;;;;;;;;;;5028516;28;20045;-77
2022/10/22 10:31:18;;;;;;;9.25;4.72;;;;;;;;;;5024400;28;20042;-78
2022/10/22 10:34:04;;;;;;;8.00;4.82;;;;;;;;;;5025755;28;20090;-78
2022/10/22 10:36:33;;;;;;;8.85;5.35;;;;;;;;;;5028629;28;20048;-78
2022/10/22 10:38:59;;;;;;;8.40;5.13;;;;;;;;;;5027521;28;20041;-77
2022/10/22 10:41:29;;;;;;;8.32;4.55;;;;;;;;;;5025956;28;20126;-76
2022/10/22 10:43:58;;;;;;;8.80;4.68;;;;;;;;;;5026825;28;20143;-77
2022/10/22 10:46:49;;;;;;;7.25;4.50;;;;;;;;;;5021072;28;20056;-77
2022/10/22 10:49:19;;;;;;;10.32;4.93;;;;;;;;;;5025452;28;20493;-77
2022/10/22 10:51:51;;;;;;;7.80;4.80;;;;;;;;;;5023617;28;20504;-76
2022/10/22 10:54:35;;;;;;;10.15;4.78;;;;;;;;;;5020009;28;20042;-76
2022/10/22 10:57:07;;;;;;;19.75;12.27;;;;;;;;;;5017159;28;20049;-76
2022/10/22 10:59:33;;;;;;;10.05;6.30;;;;;;;;;;5022211;28;20060;-76
2022/10/22 11:02:26;;;;;;;6.72;3.80;;;;;;;;;;5019360;28;20050;-77
2022/10/22 11:05:02;;;;;;;7.70;3.17;;;;;;;;;;5019307;28;20057;-76
2022/10/22 11:07:34;;;;;;;5.90;2.88;;;;;;;;;;5019466;28;20780;-77
2022/10/22 11:10:02;;;;;;;8.07;3.35;;;;;;;;;;5017393;28;20049;-76
2022/10/22 11:12:31;;;;;;;7.18;3.60;;;;;;;;;;5018548;28;20052;-79
2022/10/22 11:15:16;;;;;;;7.13;2.83;;;;;;;;;;5025215;28;20136;-81
2022/10/22 11:17:46;;;;;;;7.70;2.60;;;;;;;;;;5027432;28;20508;-77
2022/10/22 11:20:18;;;;;;;6.35;2.35;;;;;;;;;;5026728;28;20049;-76
2022/10/22 11:22:51;;;;;;;5.95;2.50;;;;;;;;;;5021378;28;20136;-77
2022/10/22 11:25:31;;;;;;;7.70;2.53;;;;;;;;;;5020030;28;20481;-78
2022/10/22 11:28:02;;;;;;;11.43;3.25;;;;;;;;;;5024438;28;20091;-80
2022/10/22 11:30:31;;;;;;;8.00;2.40;;;;;;;;;;5015805;28;20113;-77
2022/10/22 11:32:59;;;;;;;8.52;2.30;;;;;;;;;;5025961;28;20049;-77
2022/10/22 11:35:28;;;;;;;6.18;2.20;;;;;;;;;;5019472;28;22030;-77
2022/10/22 11:37:54;;;;;;;7.53;2.17;;;;;;;;;;5024081;28;20556;-76
2022/10/22 11:40:33;;;;;;;7.47;2.70;;;;;;;;;;5020568;28;20038;-76
2022/10/22 11:43:06;;;;;;;7.57;2.40;;;;;;;;;;5024396;28;20088;-77
2022/10/22 11:45:36;;;;;;;8.55;2.50;;;;;;;;;;5027276;28;20050;-76
2022/10/22 11:48:09;;;;;;;4.88;2.40;;;;;;;;;;5026495;28;20060;-76
2022/10/22 11:50:45;;;;;;;8.80;2.45;;;;;;;;;;5027250;28;20060;-77
2022/10/22 11:53:11;;;;;;;7.45;2.78;;;;;;;;;;5026590;28;20052;-76
2022/10/22 11:55:50;;;;;;;8.88;2.75;;;;;;;;;;5032279;28;20397;-76
2022/10/22 11:58:25;;;;;;;6.80;2.45;;;;;;;;;;5028255;28;20054;-76
2022/10/22 12:00:51;;;;;;;8.27;2.72;;;;;;;;;;5028096;28;20053;-77
2022/10/22 12:03:42;;;;;;;10.93;2.60;;;;;;;;;;5030533;28;20696;-76
2022/10/22 12:06:11;;;;;;;6.90;2.38;;;;;;;;;;5031169;28;20045;-77
2022/10/22 12:08:53;;;;;;;9.43;2.47;;;;;;;;;;5031092;28;20448;-76
2022/10/22 12:11:48;;;;;;;5.88;2.30;;;;;;;;;;5027256;28;20050;-77
2022/10/22 12:14:18;;;;;;;10.30;2.60;;;;;;;;;;5016159;28;20057;-76
2022/10/22 12:16:47;;;;;;;10.15;2.80;;;;;;;;;;5032286;28;20163;-76
2022/10/22 12:19:18;;;;;;;11.68;2.63;;;;;;;;;;5031542;28;20084;-77
2022/10/22 12:21:47;;;;;;;9.38;2.50;;;;;;;;;;5024451;28;20049;-77
2022/10/22 12:24:18;;;;;;;11.63;2.63;;;;;;;;;;5029071;28;20049;-76
2022/10/22 12:26:45;;;;;;;7.50;2.50;;;;;;;;;;5025313;28;20041;-77
2022/10/22 12:29:13;;;;;;;10.50;2.72;;;;;;;;;;5026922;28;20492;-77
2022/10/22 12:31:40;;;;;;;8.18;2.55;;;;;;;;;;5029508;28;20048;-77
2022/10/22 12:34:08;;;;;;;12.05;2.50;;;;;;;;;;5026591;28;20519;-77
2022/10/22 12:36:36;;;;;;;13.48;3.17;;;;;;;;;;5020338;28;20056;-76
2022/10/22 12:39:04;;;;;;;9.20;3.33;;;;;;;;;;5022258;28;20110;-77
2022/10/22 12:41:34;;;;;;;8.82;2.70;;;;;;;;;;5044000;28;20041;-78
2022/10/22 12:44:00;;;;;;;5.72;2.50;;;;;;;;;;5033810;28;20046;-77
2022/10/22 12:46:27;;;;;;;9.32;2.75;;;;;;;;;;5031203;28;20123;-77
2022/10/22 12:48:54;;;;;;;8.57;2.55;;;;;;;;;;5030636;28;20056;-76
2022/10/22 12:51:21;;;;;;;8.15;2.80;;;;;;;;;;5027793;28;20060;-77
2022/10/22 12:53:51;;;;;;;9.52;2.60;;;;;;;;;;5026684;28;20400;-77
2022/10/22 12:56:20;;;;;;;5.05;2.20;;;;;;;;;;5022824;28;20450;-78
2022/10/22 12:58:54;;;;;;;5.57;2.08;;;;;;;;;;5029551;28;20044;-77
2022/10/22 13:01:20;;;;;;;6.75;2.60;;;;;;;;;;5026231;28;20049;-77
2022/10/22 13:03:51;;;;;;;6.03;2.45;;;;;;;;;;5030040;28;20481;-77
2022/10/22 13:06:21;;;;;;;7.88;2.63;;;;;;;;;;5025235;28;20068;-76
2022/10/22 13:08:59;;;;;;;9.48;2.40;;;;;;;;;;5029733;28;20049;-77
2022/10/22 13:11:39;;;;;;;4.10;2.00;;;;;;;;;;5026558;28;20142;-77
2022/10/22 13:14:14;;;;;;;6.43;2.03;;;;;;;;;;5027459;28;20041;-77
2022/10/22 13:16:40;;;;;;;7.13;2.60;;;;;;;;;;5029843;28;20041;-77
2022/10/22 13:19:06;;;;;;;4.40;2.00;;;;;;;;;;5024890;28;20050;-77
2022/10/22 13:21:38;;;;;;;5.38;1.85;;;;;;;;;;5029972;28;20488;-77
2022/10/22 13:24:21;;;;;;;4.97;1.98;;;;;;;;;;5030304;28;20393;-77
2022/10/22 13:26:52;;;;;;;5.50;2.00;;;;;;;;;;5020554;28;20045;-77
2022/10/22 13:29:19;;;;;;;5.43;2.17;;;;;;;;;;5028392;28;20481;-77
2022/10/22 13:31:46;;;;;;;3.45;1.92;;;;;;;;;;5024187;28;20111;-77
2022/10/22 13:34:15;;;;;;;7.07;2.08;;;;;;;;;;5027028;28;20109;-77
2022/10/22 13:36:41;;;;;;;4.22;1.80;;;;;;;;;;5030797;28;20049;-78
2022/10/22 13:39:12;;;;;;;4.00;2.03;;;;;;;;;;5029039;28;20220;-77
2022/10/22 13:41:39;;;;;;;4.10;1.92;;;;;;;;;;5025058;28;20041;-77
2022/10/22 13:44:05;;;;;;;3.80;1.90;;;;;;;;;;5029890;28;20128;-78
2022/10/22 13:46:31;;;;;;;4.07;2.05;;;;;;;;;;5026050;28;20375;-78
2022/10/22 13:48:58;;;;;;;5.80;2.00;;;;;;;;;;5028747;28;20480;-78
2022/10/22 13:51:27;;;;;;;6.95;2.30;;;;;;;;;;5022503;28;20080;-78
2022/10/22 13:53:53;;;;;;;7.32;2.30;;;;;;;;;;5028589;28;20053;-77
2022/10/22 13:56:20;;;;;;;6.97;2.60;;;;;;;;;;5028236;28;20060;-77
2022/10/22 13:58:47;;;;;;;7.28;2.58;;;;;;;;;;5031439;28;20393;-77
2022/10/22 14:01:23;;;;;;;9.25;3.42;;;;;;;;;;5026761;28;20049;-77
2022/10/22 14:03:50;;;;;;;7.30;2.42;;;;;;;;;;5014768;28;20062;-77
2022/10/22 14:06:17;;;;;;;9.40;2.88;;;;;;;;;;5026334;28;20056;-77
2022/10/22 14:08:44;;;;;;;8.35;3.00;;;;;;;;;;5024007;28;20046;-77
2022/10/22 14:11:11;;;;;;;7.47;2.92;;;;;;;;;;5020024;28;20045;-77
2022/10/22 14:13:37;;;;;;;10.93;3.13;;;;;;;;;;5027443;28;20056;-77
2022/10/22 14:16:04;;;;;;;9.00;2.72;;;;;;;;;;5025122;28;20053;-77
2022/10/22 14:18:31;;;;;;;8.15;2.65;;;;;;;;;;5026994;28;20045;-78
2022/10/22 14:20:59;;;;;;;13.20;3.28;;;;;;;;;;5022999;28;20065;-77
2022/10/22 14:23:27;;;;;;;6.95;2.78;;;;;;;;;;5023986;28;20045;-77
2022/10/22 14:25:53;;;;;;;12.25;3.10;;;;;;;;;;5036084;28;20417;-76
2022/10/22 14:28:19;;;;;;;7.05;3.00;;;;;;;;;;5028939;28;20048;-77
2022/10/22 14:30:45;;;;;;;9.55;3.05;;;;;;;;;;5028822;28;20046;-77
2022/10/22 14:33:16;;;;;;;8.40;2.88;;;;;;;;;;5011361;28;20160;-77
2022/10/22 14:35:42;;;;;;;6.25;2.65;;;;;;;;;;5029743;28;20394;-77
2022/10/22 14:38:09;;;;;;;12.30;2.90;;;;;;;;;;5016803;28;20038;-77
2022/10/22 14:40:37;;;;;;;10.05;2.88;;;;;;;;;;5029193;28;20049;-77
2022/10/22 14:43:04;;;;;;;8.55;3.22;;;;;;;;;;5029380;28;20049;-78
2022/10/22 14:45:30;;;;;;;10.20;3.10;;;;;;;;;;5027442;28;20136;-77
2022/10/22 14:47:59;;;;;;;12.45;2.92;;;;;;;;;;5028884;28;20073;-77
2022/10/22 14:50:25;;;;;;;11.77;3.60;;;;;;;;;;5022851;28;20053;-77